createdAt,value
2022-09-17T00:02:44.939Z,14.34
2022-09-17T00:07:46.745Z,14.33
2022-09-17T00:12:49.274Z,14.33
2022-09-17T00:17:58.141Z,14.33
2022-09-17T00:22:59.890Z,14.31
2022-09-17T00:28:01.919Z,14.31
2022-09-17T00:33:03.742Z,14.28
2022-09-17T00:38:05.369Z,14.29
2022-09-17T00:43:12.212Z,14.24
2022-09-17T00:48:13.893Z,14.18
2022-09-17T00:53:18.388Z,14.16
2022-09-17T00:58:22.817Z,14.15
2022-09-17T01:03:24.769Z,14.15
2022-09-17T01:08:58.493Z,14.10
2022-09-17T01:14:09.733Z,14.01
2022-09-17T01:19:45.460Z,14.06
2022-09-17T01:25:11.552Z,14.03
2022-09-17T01:30:21.845Z,14.01
2022-09-17T01:35:46.940Z,13.97
2022-09-17T01:40:56.985Z,13.97
2022-09-17T01:46:10.307Z,13.97
2022-09-17T01:51:17.066Z,13.95
2022-09-17T01:56:24.888Z,13.92
2022-09-17T02:01:31.128Z,13.89
2022-09-17T02:06:38.236Z,13.87
2022-09-17T02:11:43.385Z,13.81
2022-09-17T02:16:50.813Z,13.75
2022-09-17T02:22:15.116Z,13.68
2022-09-17T02:27:26.733Z,13.68
2022-09-17T02:32:28.564Z,13.66
2022-09-17T02:37:30.447Z,13.64
2022-09-17T02:42:35.692Z,13.63
2022-09-17T02:48:04.906Z,13.62
2022-09-17T02:53:18.578Z,13.64
2022-09-17T02:58:41.254Z,13.61
2022-09-17T03:03:45.815Z,13.57
2022-09-17T03:08:48.095Z,13.58
2022-09-17T03:13:50.239Z,13.61
2022-09-17T03:18:51.964Z,13.61
2022-09-17T03:23:53.888Z,13.59
2022-09-17T03:28:55.929Z,13.53
2022-09-17T03:33:58.803Z,13.50
2022-09-17T03:39:00.634Z,13.24
2022-09-17T03:44:02.831Z,13.08
2022-09-17T03:49:04.456Z,13.12
2022-09-17T03:54:06.650Z,13.08
2022-09-17T03:59:08.653Z,13.09
2022-09-17T04:04:10.316Z,13.11
2022-09-17T04:09:11.920Z,13.07
2022-09-17T04:14:13.720Z,13.03
2022-09-17T04:19:15.481Z,13.05
2022-09-17T04:24:17.227Z,13.08
2022-09-17T04:29:19.033Z,13.09
2022-09-17T04:34:20.805Z,13.07
2022-09-17T04:39:22.361Z,13.07
2022-09-17T04:44:23.942Z,13.10
2022-09-17T04:49:29.730Z,13.11
2022-09-17T04:54:31.333Z,13.14
2022-09-17T04:59:33.184Z,13.19
2022-09-17T05:04:34.792Z,13.22
2022-09-17T05:09:36.553Z,13.28
2022-09-17T05:14:38.502Z,13.36
2022-09-17T05:19:40.065Z,13.37
2022-09-17T05:24:41.965Z,13.38
2022-09-17T05:29:43.641Z,13.38
2022-09-17T05:34:45.226Z,13.44
2022-09-17T05:39:47.520Z,13.45
2022-09-17T05:44:49.305Z,13.46
2022-09-17T05:49:50.920Z,13.45
2022-09-17T05:54:52.486Z,13.49
2022-09-17T05:59:54.236Z,13.52
2022-09-17T06:04:55.850Z,13.56
2022-09-17T06:09:57.642Z,13.54
2022-09-17T06:14:59.209Z,13.56
2022-09-17T06:20:01.598Z,13.60
2022-09-17T06:25:04.047Z,13.63
2022-09-17T06:30:06.852Z,13.67
2022-09-17T06:35:08.999Z,13.78
2022-09-17T06:40:10.995Z,13.85
2022-09-17T06:45:16.601Z,13.91
2022-09-17T06:50:19.620Z,14.00
2022-09-17T06:55:21.732Z,14.06
2022-09-17T07:00:23.370Z,14.18
2022-09-17T07:05:26.233Z,14.27
2022-09-17T07:10:28.184Z,14.21
2022-09-17T07:15:30.152Z,14.28
2022-09-17T07:20:31.755Z,14.15
2022-09-17T07:25:33.512Z,14.21
2022-09-17T07:30:35.117Z,14.30
2022-09-17T07:35:36.702Z,14.28
2022-09-17T07:40:38.343Z,14.30
2022-09-17T07:45:40.244Z,14.30
2022-09-17T07:50:41.816Z,14.38
2022-09-17T07:55:43.457Z,14.34
2022-09-17T08:00:45.165Z,14.37
2022-09-17T08:05:48.007Z,14.26
2022-09-17T08:10:49.690Z,14.26
2022-09-17T08:15:51.254Z,14.14
2022-09-17T08:20:52.946Z,14.10
2022-09-17T08:25:55.972Z,14.17
2022-09-17T08:31:08.578Z,14.22
2022-09-17T08:36:12.495Z,14.23
2022-09-17T08:41:41.304Z,14.15
2022-09-17T08:46:50.898Z,14.14
2022-09-17T08:52:20.240Z,14.16
2022-09-17T08:57:33.865Z,14.18
2022-09-17T09:02:45.829Z,14.19
2022-09-17T09:08:00.541Z,14.09
2022-09-17T09:13:02.359Z,14.20
2022-09-17T09:18:17.921Z,14.14
2022-09-17T09:23:50.691Z,14.17
2022-09-17T09:28:53.045Z,14.26
2022-09-17T09:33:55.567Z,14.23
2022-09-17T09:39:02.241Z,14.28
2022-09-17T09:44:09.591Z,14.27
2022-09-17T09:49:11.820Z,14.29
2022-09-17T09:54:29.792Z,14.28
2022-09-17T09:59:31.590Z,14.31
2022-09-17T10:04:33.289Z,14.32
2022-09-17T10:09:37.064Z,14.37
2022-09-17T10:14:40.244Z,14.40
2022-09-17T10:19:43.699Z,14.36
2022-09-17T10:24:46.158Z,14.43
2022-09-17T10:29:51.560Z,14.48
2022-09-17T10:35:04.630Z,14.48
2022-09-17T10:40:27.107Z,14.41
2022-09-17T10:45:31.558Z,14.51
2022-09-17T10:50:35.583Z,14.57
2022-09-17T10:55:50.622Z,14.60
2022-09-17T11:01:02.392Z,14.67
2022-09-17T11:06:14.298Z,14.80
2022-09-17T11:11:30.117Z,14.90
2022-09-17T11:16:55.560Z,15.00
2022-09-17T11:22:03.717Z,15.10
2022-09-17T11:27:15.343Z,15.12
2022-09-17T11:32:46.598Z,15.30
2022-09-17T11:38:16.262Z,15.42
2022-09-17T11:43:21.869Z,15.48
2022-09-17T11:48:32.961Z,15.43
2022-09-17T11:53:54.503Z,15.31
2022-09-17T11:59:02.256Z,15.17
2022-09-17T12:04:19.979Z,15.02
2022-09-17T12:09:26.554Z,14.96
2022-09-17T12:14:36.717Z,14.92
2022-09-17T12:19:46.776Z,14.84
2022-09-17T12:24:51.526Z,14.87
2022-09-17T12:30:06.853Z,14.86
2022-09-17T12:35:52.697Z,14.79
2022-09-17T12:40:57.912Z,14.73
2022-09-17T12:46:17.487Z,14.63
2022-09-17T12:51:43.456Z,14.58
2022-09-17T12:57:01.693Z,14.59
2022-09-17T13:02:27.058Z,14.56
2022-09-17T13:07:53.563Z,14.54
2022-09-17T13:13:13.841Z,14.50
2022-09-17T13:18:27.828Z,14.45
2022-09-17T13:23:34.195Z,14.41
2022-09-17T13:28:47.787Z,14.40
2022-09-17T13:33:53.787Z,14.30
2022-09-17T13:38:55.537Z,14.24
2022-09-17T13:43:57.818Z,14.21
2022-09-17T13:49:02.643Z,14.21
2022-09-17T13:54:10.009Z,14.18
2022-09-17T13:59:32.052Z,14.13
2022-09-17T14:04:40.374Z,14.17
2022-09-17T14:09:56.273Z,14.17
2022-09-17T14:14:58.140Z,14.17
2022-09-17T14:20:01.105Z,14.17
2022-09-17T14:25:02.879Z,14.13
2022-09-17T14:30:20.730Z,14.20
2022-09-17T14:35:42.348Z,14.17
2022-09-17T14:40:47.061Z,14.20
2022-09-17T14:45:51.820Z,14.15
2022-09-17T14:51:31.657Z,14.12
2022-09-17T14:57:02.356Z,14.03
2022-09-17T15:02:19.848Z,13.97
2022-09-17T15:07:23.388Z,13.97
2022-09-17T15:12:29.560Z,13.96
2022-09-17T15:17:33.424Z,13.96
2022-09-17T15:22:42.374Z,13.96
2022-09-17T15:27:46.005Z,13.96
2022-09-17T15:32:57.479Z,13.94
2022-09-17T15:38:22.218Z,13.92
2022-09-17T15:43:33.704Z,13.93
2022-09-17T15:48:38.443Z,13.89
2022-09-17T15:53:52.435Z,13.88
2022-09-17T15:59:25.612Z,13.86
2022-09-17T16:04:28.798Z,13.86
2022-09-17T16:09:53.289Z,13.85
2022-09-17T16:14:57.283Z,13.85
2022-09-17T16:20:05.405Z,13.82
2022-09-17T16:25:08.869Z,13.83
2022-09-17T16:30:15.741Z,13.81
2022-09-17T16:35:20.261Z,13.80
2022-09-17T16:40:25.331Z,13.73
2022-09-17T16:45:29.113Z,13.70
2022-09-17T16:50:31.453Z,13.68
2022-09-17T16:55:33.234Z,13.67
2022-09-17T17:00:36.061Z,13.68
2022-09-17T17:05:38.153Z,13.65
2022-09-17T17:10:40.101Z,13.53
2022-09-17T17:15:42.011Z,13.50
2022-09-17T17:20:43.817Z,13.44
2022-09-17T17:25:45.435Z,13.38
2022-09-17T17:30:48.579Z,13.32
2022-09-17T17:35:50.365Z,13.22
2022-09-17T17:41:07.302Z,13.11
2022-09-17T17:46:10.413Z,13.12
2022-09-17T17:51:12.457Z,13.09
2022-09-17T17:56:14.252Z,13.07
2022-09-17T18:01:19.546Z,12.98
2022-09-17T18:06:21.183Z,12.93
2022-09-17T18:11:23.499Z,12.92
2022-09-17T18:16:25.076Z,12.89
2022-09-17T18:21:27.585Z,12.86
2022-09-17T18:26:29.817Z,12.83
2022-09-17T18:31:33.501Z,12.75
2022-09-17T18:36:36.638Z,12.77
2022-09-17T18:41:40.292Z,12.69
2022-09-17T18:46:42.645Z,12.65
2022-09-17T18:51:44.590Z,12.62
2022-09-17T18:56:46.489Z,12.59
2022-09-17T19:01:48.370Z,12.52
2022-09-17T19:06:50.150Z,12.53
2022-09-17T19:11:51.977Z,12.51
2022-09-17T19:16:55.218Z,12.48
2022-09-17T19:21:56.859Z,12.45
2022-09-17T19:26:58.886Z,12.45
2022-09-17T19:32:00.910Z,12.41
2022-09-17T19:37:02.864Z,12.43
2022-09-17T19:42:04.841Z,12.44
2022-09-17T19:47:06.625Z,12.46
2022-09-17T19:52:08.693Z,12.45
2022-09-17T19:57:10.577Z,12.46
2022-09-17T20:02:15.664Z,12.43
2022-09-17T20:07:17.310Z,12.46
2022-09-17T20:12:18.901Z,12.47
2022-09-17T20:17:20.529Z,12.46
2022-09-17T20:22:22.370Z,12.43
2022-09-17T20:27:24.012Z,12.45
2022-09-17T20:32:25.575Z,12.42
2022-09-17T20:38:01.708Z,12.43
2022-09-17T20:42:50.462Z,12.43
2022-09-17T20:47:52.081Z,12.41
2022-09-17T20:52:53.671Z,12.37
2022-09-17T20:57:55.244Z,12.34
2022-09-17T21:02:57.626Z,12.32
2022-09-17T21:07:59.402Z,12.32
2022-09-17T21:13:01.036Z,12.24
2022-09-17T21:18:02.726Z,12.27
2022-09-17T21:23:04.611Z,12.26
2022-09-17T21:28:06.182Z,12.19
2022-09-17T21:33:08.094Z,12.18
2022-09-17T21:38:09.725Z,12.15
2022-09-17T21:43:11.554Z,12.13
2022-09-17T21:48:13.314Z,12.04
2022-09-17T21:53:14.936Z,12.02
2022-09-17T21:58:16.666Z,11.99
2022-09-17T22:03:19.812Z,12.01
2022-09-17T22:08:21.644Z,11.96
2022-09-17T22:13:23.466Z,11.92
2022-09-17T22:18:25.759Z,11.90
2022-09-17T22:23:27.627Z,11.85
2022-09-17T22:28:29.857Z,11.83
2022-09-17T22:33:33.544Z,11.81
2022-09-17T22:38:35.986Z,11.75
2022-09-17T22:43:37.613Z,11.73
2022-09-17T22:48:40.624Z,11.69
2022-09-17T22:53:43.273Z,11.62
2022-09-17T22:58:45.614Z,11.58
2022-09-17T23:03:48.886Z,11.58
2022-09-17T23:08:51.453Z,11.59
2022-09-17T23:13:54.989Z,11.57
2022-09-17T23:18:56.880Z,11.49
2022-09-17T23:23:58.554Z,11.45
2022-09-17T23:29:04.943Z,11.48
2022-09-17T23:34:07.631Z,11.47
2022-09-17T23:39:11.416Z,11.46
2022-09-17T23:44:15.690Z,11.46
2022-09-17T23:49:18.232Z,11.46
2022-09-17T23:54:19.893Z,11.43
2022-09-17T23:59:21.498Z,11.40
